SHT9N EGPH-EGLL
Flight info
| Callsign | SHT9N |
|---|---|
| Flight time | N/A |
| Altitude | 35000 |
| Route | GOSAM P600 FENIK L612 NAVSO DCT AKOMU DCT VAMEB DCT NUGRA |
| Aircraft | A21N/M-SDE2E3FGHIRWXY/LB1 |
Departure
| Time | 2026-05-03 22:10 |
|---|---|
| Airport | Edinburgh Airport (EGPH) |
Arrival
| Time | N/A |
|---|---|
| Airport | London Heathrow Airport (EGLL) |
| Time | Latitude | Longitude | Altitude | Speed | Heading |
|---|---|---|---|---|---|
| 2026-05-03 21:29 | 55.94943 | -3.36360 | 122 ft | 0 kts | 148° |
| 2026-05-03 21:46 | 55.94945 | -3.36362 | 122 ft | 2 kts | 148° |
| 2026-05-03 21:47 | 55.94966 | -3.36385 | 122 ft | 2 kts | 148° |
| 2026-05-03 21:47 | 55.94986 | -3.36403 | 117 ft | 4 kts | 166° |
| 2026-05-03 21:47 | 55.95009 | -3.36402 | 122 ft | 4 kts | 215° |
| 2026-05-03 21:47 | 55.95018 | -3.36386 | 122 ft | 0 kts | 238° |
| 2026-05-03 21:48 | 55.95017 | -3.36387 | 121 ft | 1 kts | 238° |
| 2026-05-03 21:49 | 55.95014 | -3.36396 | 121 ft | 0 kts | 239° |
| 2026-05-03 21:54 | 55.95011 | -3.36406 | 120 ft | 4 kts | 239° |
| 2026-05-03 21:54 | 55.94994 | -3.36456 | 120 ft | 6 kts | 239° |
| 2026-05-03 21:55 | 55.94968 | -3.36531 | 119 ft | 8 kts | 239° |
| 2026-05-03 21:55 | 55.94935 | -3.36629 | 120 ft | 10 kts | 239° |
| 2026-05-03 21:55 | 55.94899 | -3.36739 | 121 ft | 5 kts | 245° |
| 2026-05-03 21:55 | 55.94892 | -3.36770 | 118 ft | 1 kts | 252° |
| 2026-05-03 21:56 | 55.94891 | -3.36795 | 118 ft | 3 kts | 271° |
| 2026-05-03 21:56 | 55.94910 | -3.36831 | 121 ft | 5 kts | 315° |
| 2026-05-03 21:56 | 55.94917 | -3.36900 | 118 ft | 7 kts | 246° |
| 2026-05-03 21:56 | 55.94889 | -3.36990 | 119 ft | 9 kts | 241° |
| 2026-05-03 21:57 | 55.94854 | -3.37103 | 118 ft | 12 kts | 240° |
| 2026-05-03 21:57 | 55.94810 | -3.37239 | 118 ft | 14 kts | 239° |
| 2026-05-03 21:57 | 55.94757 | -3.37394 | 120 ft | 16 kts | 239° |
| 2026-05-03 21:57 | 55.94696 | -3.37568 | 120 ft | 17 kts | 238° |
| 2026-05-03 21:58 | 55.94630 | -3.37760 | 119 ft | 19 kts | 238° |
| 2026-05-03 21:58 | 55.94561 | -3.37974 | 117 ft | 21 kts | 242° |
| 2026-05-03 21:58 | 55.94487 | -3.38200 | 121 ft | 20 kts | 241° |
| 2026-05-03 21:58 | 55.94446 | -3.38303 | 121 ft | 6 kts | 234° |
| 2026-05-03 21:59 | 55.94417 | -3.38377 | 121 ft | 8 kts | 239° |
| 2026-05-03 21:59 | 55.94387 | -3.38484 | 121 ft | 11 kts | 240° |
| 2026-05-03 21:59 | 55.94349 | -3.38589 | 121 ft | 7 kts | 218° |
| 2026-05-03 21:59 | 55.94302 | -3.38640 | 121 ft | 9 kts | 212° |
| 2026-05-03 22:00 | 55.94256 | -3.38719 | 121 ft | 1 kts | 236° |
| 2026-05-03 22:06 | 55.94250 | -3.38736 | 121 ft | 10 kts | 240° |
| 2026-05-03 22:06 | 55.94280 | -3.38848 | 118 ft | 11 kts | 327° |
| 2026-05-03 22:06 | 55.94305 | -3.38878 | 121 ft | 0 kts | 323° |
| 2026-05-03 22:07 | 55.94306 | -3.38878 | 121 ft | 0 kts | 323° |
| 2026-05-03 22:07 | 55.94314 | -3.38888 | 121 ft | 2 kts | 323° |
| 2026-05-03 22:08 | 55.94333 | -3.38914 | 121 ft | 4 kts | 323° |
| 2026-05-03 22:08 | 55.94363 | -3.38953 | 120 ft | 7 kts | 325° |
| 2026-05-03 22:08 | 55.94411 | -3.38975 | 119 ft | 8 kts | 28° |
| 2026-05-03 22:08 | 55.94430 | -3.38932 | 119 ft | 0 kts | 58° |
| 2026-05-03 22:09 | 55.94508 | -3.38707 | 118 ft | 58 kts | 58° |
| 2026-05-03 22:09 | 55.94841 | -3.37714 | 117 ft | 126 kts | 58° |
| 2026-05-03 22:09 | 55.95389 | -3.36133 | 306 ft | 154 kts | 58° |
| 2026-05-03 22:10 | 55.96685 | -3.33149 | 1378 ft | 166 kts | 40° |
| 2026-05-03 22:10 | 55.97620 | -3.31691 | 1778 ft | 188 kts | 42° |
| 2026-05-03 22:10 | 55.98637 | -3.30050 | 2325 ft | 207 kts | 42° |
| 2026-05-03 22:10 | 55.99797 | -3.28227 | 2758 ft | 235 kts | 37° |
| 2026-05-03 22:11 | 56.01365 | -3.27119 | 3382 ft | 252 kts | 5° |
| 2026-05-03 22:11 | 56.03104 | -3.27611 | 4251 ft | 259 kts | 335° |
| 2026-05-03 22:11 | 56.04491 | -3.29641 | 5129 ft | 263 kts | 305° |
| 2026-05-03 22:11 | 56.05110 | -3.32704 | 6044 ft | 266 kts | 275° |
| 2026-05-03 22:12 | 56.04781 | -3.35915 | 6931 ft | 273 kts | 246° |
| 2026-05-03 22:12 | 56.03560 | -3.38520 | 7809 ft | 279 kts | 219° |
| 2026-05-03 22:12 | 56.02001 | -3.40693 | 8705 ft | 281 kts | 230° |
| 2026-05-03 22:12 | 56.01098 | -3.43687 | 9534 ft | 280 kts | 258° |
| 2026-05-03 22:13 | 56.00780 | -3.47146 | 10360 ft | 287 kts | 264° |
| 2026-05-03 22:13 | 56.00472 | -3.50865 | 10785 ft | 310 kts | 262° |
| 2026-05-03 22:13 | 56.00057 | -3.54775 | 11127 ft | 333 kts | 259° |
| 2026-05-03 22:13 | 55.99546 | -3.58892 | 11431 ft | 354 kts | 258° |
| 2026-05-03 22:14 | 55.98955 | -3.63287 | 11765 ft | 371 kts | 257° |
| 2026-05-03 22:14 | 55.98312 | -3.67872 | 12411 ft | 378 kts | 257° |
| 2026-05-03 22:14 | 55.97672 | -3.72363 | 13107 ft | 381 kts | 257° |
| 2026-05-03 22:14 | 55.97011 | -3.76969 | 13777 ft | 384 kts | 256° |
| 2026-05-03 22:15 | 55.96341 | -3.81614 | 14440 ft | 387 kts | 257° |
| 2026-05-03 22:15 | 55.95729 | -3.85875 | 14991 ft | 390 kts | 256° |
| 2026-05-03 22:15 | 55.95051 | -3.90557 | 15573 ft | 393 kts | 256° |
| 2026-05-03 22:15 | 55.94358 | -3.95306 | 16127 ft | 396 kts | 256° |
| 2026-05-03 22:16 | 55.93576 | -4.00047 | 16650 ft | 400 kts | 249° |
| 2026-05-03 22:16 | 55.92380 | -4.03798 | 17089 ft | 405 kts | 234° |
| 2026-05-03 22:16 | 55.90360 | -4.07320 | 17606 ft | 410 kts | 218° |
| 2026-05-03 22:16 | 55.87932 | -4.10024 | 18111 ft | 413 kts | 212° |
| 2026-05-03 22:17 | 55.85435 | -4.12644 | 18597 ft | 416 kts | 212° |
| 2026-05-03 22:17 | 55.82970 | -4.15353 | 19058 ft | 420 kts | 214° |
| 2026-05-03 22:17 | 55.80503 | -4.18166 | 19524 ft | 423 kts | 214° |
| 2026-05-03 22:17 | 55.77993 | -4.20958 | 19951 ft | 427 kts | 211° |
| 2026-05-03 22:18 | 55.75466 | -4.23001 | 20341 ft | 432 kts | 201° |
| 2026-05-03 22:18 | 55.72579 | -4.24258 | 20768 ft | 436 kts | 189° |
| 2026-05-03 22:18 | 55.69524 | -4.24459 | 21198 ft | 441 kts | 177° |
| 2026-05-03 22:18 | 55.66487 | -4.23619 | 21623 ft | 446 kts | 167° |
| 2026-05-03 22:19 | 55.63582 | -4.21667 | 22037 ft | 450 kts | 153° |
| 2026-05-03 22:19 | 55.60837 | -4.18964 | 22488 ft | 452 kts | 150° |
| 2026-05-03 22:19 | 55.58103 | -4.16172 | 22930 ft | 455 kts | 150° |
| 2026-05-03 22:19 | 55.55338 | -4.13401 | 23361 ft | 458 kts | 151° |
| 2026-05-03 22:20 | 55.52537 | -4.10642 | 23790 ft | 461 kts | 151° |
| 2026-05-03 22:20 | 55.49727 | -4.07898 | 24251 ft | 464 kts | 151° |
| 2026-05-03 22:20 | 55.46890 | -4.05137 | 24685 ft | 467 kts | 151° |
| 2026-05-03 22:20 | 55.44038 | -4.02369 | 25091 ft | 470 kts | 151° |
| 2026-05-03 22:21 | 55.41151 | -3.99566 | 25472 ft | 473 kts | 151° |
| 2026-05-03 22:21 | 55.38300 | -3.96811 | 25865 ft | 475 kts | 151° |
| 2026-05-03 22:21 | 55.35395 | -3.94005 | 26314 ft | 476 kts | 151° |
| 2026-05-03 22:21 | 55.32494 | -3.91210 | 26795 ft | 475 kts | 151° |
| 2026-05-03 22:22 | 55.29602 | -3.88437 | 27294 ft | 473 kts | 150° |
| 2026-05-03 22:22 | 55.26724 | -3.85664 | 27775 ft | 472 kts | 150° |
| 2026-05-03 22:22 | 55.23853 | -3.82900 | 28223 ft | 471 kts | 150° |
| 2026-05-03 22:22 | 55.20950 | -3.80239 | 28643 ft | 471 kts | 153° |
| 2026-05-03 22:23 | 55.18009 | -3.77697 | 29099 ft | 469 kts | 153° |
| 2026-05-03 22:23 | 55.15090 | -3.75188 | 29544 ft | 468 kts | 153° |
| 2026-05-03 22:23 | 55.12159 | -3.72673 | 29992 ft | 467 kts | 153° |
| 2026-05-03 22:23 | 55.09249 | -3.70181 | 30439 ft | 465 kts | 153° |
| 2026-05-03 22:24 | 55.06350 | -3.67697 | 30882 ft | 464 kts | 153° |
| 2026-05-03 22:24 | 55.03452 | -3.65217 | 31319 ft | 462 kts | 153° |
| 2026-05-03 22:24 | 55.00565 | -3.62755 | 31720 ft | 461 kts | 154° |
| 2026-05-03 22:24 | 54.97677 | -3.60293 | 32090 ft | 460 kts | 154° |
| 2026-05-03 22:25 | 54.94811 | -3.57854 | 32487 ft | 458 kts | 154° |
| 2026-05-03 22:25 | 54.91975 | -3.55444 | 32849 ft | 457 kts | 154° |
| 2026-05-03 22:25 | 54.89114 | -3.53020 | 33187 ft | 456 kts | 154° |
| 2026-05-03 22:25 | 54.86277 | -3.50616 | 33535 ft | 455 kts | 154° |
| 2026-05-03 22:26 | 54.83425 | -3.48208 | 33849 ft | 454 kts | 155° |
| 2026-05-03 22:26 | 54.80590 | -3.45819 | 34145 ft | 453 kts | 155° |
| 2026-05-03 22:26 | 54.77751 | -3.43423 | 34447 ft | 452 kts | 155° |
| 2026-05-03 22:26 | 54.74928 | -3.41042 | 34715 ft | 452 kts | 155° |
| 2026-05-03 22:27 | 54.72106 | -3.38667 | 34964 ft | 452 kts | 155° |
| 2026-05-03 22:27 | 54.66436 | -3.33913 | 35035 ft | 452 kts | 155° |
| 2026-05-03 22:28 | 54.61746 | -3.29997 | 35008 ft | 451 kts | 155° |
| 2026-05-03 22:28 | 54.56094 | -3.25288 | 35004 ft | 451 kts | 155° |
| 2026-05-03 22:29 | 54.50433 | -3.20587 | 34991 ft | 451 kts | 155° |
| 2026-05-03 22:29 | 54.44794 | -3.15915 | 34996 ft | 450 kts | 155° |
| 2026-05-03 22:30 | 54.39153 | -3.11257 | 35002 ft | 449 kts | 155° |
| 2026-05-03 22:30 | 54.33510 | -3.06615 | 35000 ft | 449 kts | 156° |
| 2026-05-03 22:31 | 54.27933 | -3.02037 | 34992 ft | 449 kts | 156° |
| 2026-05-03 22:31 | 54.22269 | -2.97391 | 35000 ft | 449 kts | 156° |
| 2026-05-03 22:32 | 54.16645 | -2.92850 | 35004 ft | 447 kts | 158° |
| 2026-05-03 22:32 | 54.11073 | -2.88777 | 34995 ft | 444 kts | 159° |
| 2026-05-03 22:33 | 54.05416 | -2.84678 | 34981 ft | 438 kts | 159° |
| 2026-05-03 22:33 | 53.99784 | -2.80699 | 35002 ft | 444 kts | 162° |
| 2026-05-03 22:34 | 53.93892 | -2.77511 | 35000 ft | 442 kts | 165° |
| 2026-05-03 22:34 | 53.88036 | -2.74430 | 34986 ft | 441 kts | 165° |
| 2026-05-03 22:35 | 53.82178 | -2.71340 | 35000 ft | 440 kts | 165° |
| 2026-05-03 22:35 | 53.76475 | -2.68345 | 34986 ft | 439 kts | 165° |
| 2026-05-03 22:36 | 53.70652 | -2.65288 | 34987 ft | 435 kts | 165° |
| 2026-05-03 22:36 | 53.64913 | -2.62285 | 34987 ft | 431 kts | 165° |
| 2026-05-03 22:37 | 53.59408 | -2.59412 | 34994 ft | 439 kts | 165° |
| 2026-05-03 22:37 | 53.53567 | -2.56374 | 34988 ft | 439 kts | 165° |
| 2026-05-03 22:38 | 53.47731 | -2.53348 | 34988 ft | 440 kts | 165° |
| 2026-05-03 22:38 | 53.41886 | -2.50324 | 34988 ft | 439 kts | 165° |
| 2026-05-03 22:39 | 53.36039 | -2.47312 | 34986 ft | 438 kts | 165° |
| 2026-05-03 22:39 | 53.30247 | -2.44335 | 34984 ft | 433 kts | 165° |
| 2026-05-03 22:40 | 53.24518 | -2.41393 | 34989 ft | 431 kts | 165° |
| 2026-05-03 22:40 | 53.18716 | -2.38430 | 34993 ft | 438 kts | 165° |
| 2026-05-03 22:41 | 53.12884 | -2.35455 | 34989 ft | 438 kts | 165° |
| 2026-05-03 22:41 | 53.07041 | -2.32495 | 34987 ft | 438 kts | 165° |
| 2026-05-03 22:42 | 53.01371 | -2.28837 | 34980 ft | 441 kts | 152° |
| 2026-05-03 22:42 | 52.96176 | -2.23409 | 34983 ft | 441 kts | 149° |
| 2026-05-03 22:43 | 52.91066 | -2.17959 | 34972 ft | 436 kts | 150° |
| 2026-05-03 22:43 | 52.85971 | -2.12614 | 34963 ft | 432 kts | 150° |
| 2026-05-03 22:44 | 52.80840 | -2.07269 | 34977 ft | 440 kts | 150° |
| 2026-05-03 22:44 | 52.75692 | -2.01920 | 34520 ft | 437 kts | 150° |
| 2026-05-03 22:44 | 52.73114 | -1.99242 | 34241 ft | 438 kts | 150° |
| 2026-05-03 22:45 | 52.70535 | -1.96573 | 33826 ft | 436 kts | 150° |
| 2026-05-03 22:45 | 52.67978 | -1.93926 | 33206 ft | 435 kts | 151° |
| 2026-05-03 22:45 | 52.65415 | -1.91280 | 32531 ft | 435 kts | 151° |
| 2026-05-03 22:45 | 52.62844 | -1.88636 | 31817 ft | 436 kts | 151° |
| 2026-05-03 22:46 | 52.60271 | -1.85997 | 31104 ft | 436 kts | 151° |
| 2026-05-03 22:46 | 52.57695 | -1.83351 | 30402 ft | 436 kts | 151° |
| 2026-05-03 22:46 | 52.55143 | -1.80734 | 29651 ft | 437 kts | 151° |
| 2026-05-03 22:46 | 52.52559 | -1.78089 | 28835 ft | 438 kts | 151° |
| 2026-05-03 22:47 | 52.49944 | -1.75405 | 28020 ft | 439 kts | 151° |
| 2026-05-03 22:47 | 52.47349 | -1.72746 | 27178 ft | 440 kts | 151° |
| 2026-05-03 22:47 | 52.44780 | -1.70117 | 26353 ft | 441 kts | 151° |
| 2026-05-03 22:47 | 52.42177 | -1.67459 | 25584 ft | 440 kts | 151° |
| 2026-05-03 22:48 | 52.39587 | -1.64818 | 24878 ft | 436 kts | 152° |
| 2026-05-03 22:48 | 52.37012 | -1.62198 | 24173 ft | 433 kts | 152° |
| 2026-05-03 22:48 | 52.34465 | -1.59614 | 23482 ft | 430 kts | 152° |
| 2026-05-03 22:48 | 52.31935 | -1.57049 | 22806 ft | 427 kts | 152° |
| 2026-05-03 22:49 | 52.29418 | -1.54500 | 22132 ft | 424 kts | 151° |
| 2026-05-03 22:49 | 52.26910 | -1.51968 | 21421 ft | 423 kts | 151° |
| 2026-05-03 22:49 | 52.24415 | -1.49451 | 20717 ft | 421 kts | 151° |
| 2026-05-03 22:49 | 52.21966 | -1.46918 | 20183 ft | 415 kts | 148° |
| 2026-05-03 22:50 | 52.19728 | -1.44020 | 19803 ft | 407 kts | 142° |
| 2026-05-03 22:50 | 52.17594 | -1.41045 | 19323 ft | 398 kts | 142° |
| 2026-05-03 22:50 | 52.15517 | -1.38128 | 18866 ft | 389 kts | 142° |
| 2026-05-03 22:50 | 52.13474 | -1.35275 | 18427 ft | 385 kts | 142° |
| 2026-05-03 22:51 | 52.11442 | -1.32443 | 17993 ft | 384 kts | 142° |
| 2026-05-03 22:51 | 52.09423 | -1.29626 | 17598 ft | 382 kts | 141° |
| 2026-05-03 22:51 | 52.07414 | -1.26828 | 17196 ft | 379 kts | 142° |
| 2026-05-03 22:51 | 52.05416 | -1.24055 | 16810 ft | 378 kts | 142° |
| 2026-05-03 22:52 | 52.03421 | -1.21288 | 16417 ft | 376 kts | 142° |
| 2026-05-03 22:52 | 52.01431 | -1.18539 | 16032 ft | 374 kts | 142° |
| 2026-05-03 22:52 | 51.99458 | -1.15809 | 15648 ft | 372 kts | 142° |
| 2026-05-03 22:52 | 51.97502 | -1.13106 | 15270 ft | 369 kts | 142° |
| 2026-05-03 22:53 | 51.95550 | -1.10414 | 14892 ft | 366 kts | 142° |
| 2026-05-03 22:53 | 51.93635 | -1.07777 | 14594 ft | 355 kts | 142° |
| 2026-05-03 22:53 | 51.91789 | -1.05237 | 14382 ft | 342 kts | 142° |
| 2026-05-03 22:53 | 51.90018 | -1.02788 | 14148 ft | 328 kts | 142° |
| 2026-05-03 22:54 | 51.88317 | -1.00444 | 13788 ft | 314 kts | 142° |
| 2026-05-03 22:54 | 51.86690 | -0.98209 | 13511 ft | 302 kts | 143° |
| 2026-05-03 22:54 | 51.85176 | -0.95884 | 13167 ft | 300 kts | 129° |
| 2026-05-03 22:54 | 51.84140 | -0.92944 | 12757 ft | 301 kts | 118° |
| 2026-05-03 22:55 | 51.83222 | -0.89840 | 12116 ft | 309 kts | 118° |
| 2026-05-03 22:55 | 51.82329 | -0.86771 | 11648 ft | 301 kts | 118° |
| 2026-05-03 22:55 | 51.81439 | -0.83762 | 11009 ft | 297 kts | 118° |
| 2026-05-03 22:55 | 51.80530 | -0.80767 | 10350 ft | 296 kts | 118° |
| 2026-05-03 22:56 | 51.79902 | -0.78707 | 9958 ft | 293 kts | 118° |
| 2026-05-03 22:56 | 51.79018 | -0.75777 | 9416 ft | 288 kts | 119° |
| 2026-05-03 22:56 | 51.78089 | -0.72944 | 8908 ft | 283 kts | 123° |
| 2026-05-03 22:56 | 51.77212 | -0.70187 | 8844 ft | 264 kts | 117° |
| 2026-05-03 22:57 | 51.76445 | -0.67599 | 8973 ft | 251 kts | 117° |
| 2026-05-03 22:57 | 51.75683 | -0.65060 | 8876 ft | 252 kts | 117° |
| 2026-05-03 22:57 | 51.74928 | -0.62582 | 8884 ft | 253 kts | 118° |
| 2026-05-03 22:57 | 51.74149 | -0.60037 | 8914 ft | 253 kts | 117° |
| 2026-05-03 22:58 | 51.73371 | -0.57504 | 8916 ft | 251 kts | 118° |
| 2026-05-03 22:58 | 51.72535 | -0.55013 | 8925 ft | 253 kts | 120° |
| 2026-05-03 22:58 | 51.71689 | -0.52561 | 8930 ft | 252 kts | 121° |
| 2026-05-03 22:58 | 51.70825 | -0.50066 | 8932 ft | 253 kts | 121° |
| 2026-05-03 22:59 | 51.69968 | -0.47590 | 8932 ft | 253 kts | 121° |
| 2026-05-03 22:59 | 51.69112 | -0.45123 | 8932 ft | 252 kts | 121° |
| 2026-05-03 22:59 | 51.68253 | -0.42648 | 8931 ft | 252 kts | 121° |
| 2026-05-03 22:59 | 51.67406 | -0.40204 | 8816 ft | 247 kts | 121° |
| 2026-05-03 23:00 | 51.66566 | -0.37783 | 8444 ft | 247 kts | 121° |
| 2026-05-03 23:00 | 51.65723 | -0.35368 | 8079 ft | 248 kts | 121° |
| 2026-05-03 23:00 | 51.64884 | -0.32972 | 7910 ft | 248 kts | 121° |
| 2026-05-03 23:00 | 51.64025 | -0.30523 | 7894 ft | 248 kts | 121° |
| 2026-05-03 23:01 | 51.63186 | -0.28133 | 7907 ft | 248 kts | 121° |
| 2026-05-03 23:01 | 51.62337 | -0.25712 | 7917 ft | 248 kts | 121° |
| 2026-05-03 23:01 | 51.61486 | -0.23291 | 7926 ft | 248 kts | 121° |
| 2026-05-03 23:01 | 51.60636 | -0.20875 | 7928 ft | 248 kts | 121° |
| 2026-05-03 23:02 | 51.59798 | -0.18491 | 7749 ft | 243 kts | 121° |
| 2026-05-03 23:02 | 51.58965 | -0.16126 | 7376 ft | 243 kts | 121° |
| 2026-05-03 23:02 | 51.58125 | -0.13756 | 7015 ft | 243 kts | 121° |
| 2026-05-03 23:02 | 51.57283 | -0.11405 | 6685 ft | 243 kts | 121° |
| 2026-05-03 23:03 | 51.56439 | -0.09059 | 6385 ft | 241 kts | 121° |
| 2026-05-03 23:03 | 51.55607 | -0.06758 | 6196 ft | 233 kts | 122° |
| 2026-05-03 23:03 | 51.54536 | -0.04921 | 6034 ft | 221 kts | 149° |
| 2026-05-03 23:03 | 51.53112 | -0.04190 | 5760 ft | 215 kts | 176° |
| 2026-05-03 23:04 | 51.51646 | -0.04134 | 5542 ft | 206 kts | 180° |
| 2026-05-03 23:04 | 51.50251 | -0.04153 | 5353 ft | 193 kts | 183° |
| 2026-05-03 23:04 | 51.48929 | -0.04250 | 5033 ft | 190 kts | 189° |
| 2026-05-03 23:04 | 51.47746 | -0.05094 | 4595 ft | 189 kts | 224° |
| 2026-05-03 23:05 | 51.47186 | -0.06948 | 4169 ft | 189 kts | 268° |
| 2026-05-03 23:05 | 51.47325 | -0.09059 | 4010 ft | 194 kts | 279° |
| 2026-05-03 23:05 | 51.47536 | -0.11180 | 3966 ft | 192 kts | 277° |
| 2026-05-03 23:05 | 51.47678 | -0.13279 | 3971 ft | 192 kts | 277° |
| 2026-05-03 23:06 | 51.47787 | -0.15387 | 3967 ft | 194 kts | 274° |
| 2026-05-03 23:06 | 51.47823 | -0.17529 | 3988 ft | 190 kts | 271° |
| 2026-05-03 23:06 | 51.47829 | -0.19657 | 3983 ft | 191 kts | 270° |
| 2026-05-03 23:06 | 51.47834 | -0.21646 | 3931 ft | 176 kts | 270° |
| 2026-05-03 23:07 | 51.47886 | -0.23617 | 3844 ft | 169 kts | 272° |
| 2026-05-03 23:07 | 51.47816 | -0.25619 | 3766 ft | 176 kts | 264° |
| 2026-05-03 23:07 | 51.47805 | -0.27607 | 3497 ft | 187 kts | 268° |
| 2026-05-03 23:07 | 51.47765 | -0.29807 | 3162 ft | 221 kts | 267° |
| 2026-05-03 23:08 | 51.47672 | -0.32486 | 2954 ft | 247 kts | 268° |
| 2026-05-03 23:08 | 51.47715 | -0.35210 | 2314 ft | 241 kts | 275° |